Time;durP1;ratioP1;P1;durP2;ratioP2;P2;SDS_P1;SDS_P2;PMS_P1;PMS_P2;Temp;Humidity;BMP_temperature;BMP_pressure;BME280_temperature;BME280_humidity;BME280_pressure;Samples;Min_cycle;Max_cycle;Signal;HPM_P1;HPM_P2
2024/01/23 00:00:08;;;;;;;52.20;19.90;;;;;;;-141.97;99.82;46410.25;5030616;28;20175;-82
2024/01/23 00:02:34;;;;;;;35.22;15.02;;;;;;;-141.97;100.00;46715.75;5014142;28;20165;-83
2024/01/23 00:04:59;;;;;;;65.73;22.33;;;;;;;-141.97;100.00;46452.50;5013786;28;20217;-82
2024/01/23 00:07:24;;;;;;;40.30;13.23;;;;;;;-141.97;100.00;46473.66;5029642;28;20206;-82
2024/01/23 00:09:50;;;;;;;50.53;19.13;;;;;;;-141.97;100.00;46710.00;5029893;28;20214;-82
2024/01/23 00:12:15;;;;;;;57.07;20.73;;;;;;;-141.97;100.00;46335.31;4997111;28;20227;-82
2024/01/23 00:14:41;;;;;;;54.57;23.60;;;;;;;-141.97;100.00;46473.66;5013250;28;20179;-83
2024/01/23 00:17:06;;;;;;;64.33;25.33;;;;;;;-141.97;100.00;46731.13;5029882;28;20183;-82
2024/01/23 00:19:31;;;;;;;66.37;23.03;;;;;;;-141.97;100.00;46333.38;5013140;28;20159;-83
2024/01/23 00:21:57;;;;;;;66.37;24.23;;;;;;;-141.97;100.00;46300.72;4996972;28;20653;-82
2024/01/23 00:24:23;;;;;;;48.33;18.87;;;;;;;-141.97;100.00;46308.41;5012922;28;20187;-82
2024/01/23 00:26:49;;;;;;;54.80;20.67;;;;;;;-141.97;100.00;46439.06;5029300;28;20193;-81
2024/01/23 00:29:15;;;;;;;52.23;20.57;;;;;;;-141.97;100.00;46500.56;4996747;28;20163;-83
2024/01/23 00:31:40;;;;;;;60.55;22.73;;;;;;;-141.97;100.00;46514.00;5013185;28;20233;-83
2024/01/23 00:34:06;;;;;;;40.70;14.90;;;;;;;-141.97;100.00;46469.81;4996593;28;20183;-82
2024/01/23 00:36:32;;;;;;;38.43;16.20;;;;;;;-141.97;100.00;46456.34;5029444;28;20170;-83
2024/01/23 00:38:57;;;;;;;56.40;23.03;;;;;;;-141.97;100.00;46727.28;5012655;28;20182;-83
2024/01/23 00:41:22;;;;;;;45.77;16.77;;;;;;;-141.97;100.00;46371.81;5015137;28;20171;-83
2024/01/23 00:43:48;;;;;;;59.63;22.07;;;;;;;-141.97;100.00;46304.56;5013105;28;20246;-82
2024/01/23 00:46:14;;;;;;;57.43;21.07;;;;;;;-141.97;100.00;46604.31;5012325;28;20264;-82
2024/01/23 00:48:39;;;;;;;47.50;17.50;;;;;;;-141.97;100.00;46719.59;4996464;28;20264;-82
2024/01/23 00:51:05;;;;;;;52.40;19.17;;;;;;;-141.97;100.00;46327.63;5029131;28;20170;-82
2024/01/23 00:53:30;;;;;;;63.70;23.13;;;;;;;-141.97;100.00;46279.59;5028875;28;20254;-82
2024/01/23 00:55:58;;;;;;;47.07;18.40;;;;;;;-141.97;100.00;46759.97;5012740;28;20222;-83
2024/01/23 00:58:24;;;;;;;50.08;18.65;;;;;;;-141.97;100.00;46439.06;5013945;28;20194;-83
2024/01/23 01:00:49;;;;;;;53.07;19.83;;;;;;;-141.97;100.00;46323.78;5013699;28;20224;-81
2024/01/23 01:03:14;;;;;;;59.10;23.60;;;;;;;-141.97;100.00;46239.25;4998178;28;20167;-84
2024/01/23 01:05:41;;;;;;;68.37;22.30;;;;;;;-141.97;100.00;46408.31;5014994;28;20506;-82
2024/01/23 01:08:07;;;;;;;52.13;20.70;;;;;;;-141.97;100.00;46427.53;5020464;28;20167;-83
2024/01/23 01:10:32;;;;;;;50.37;20.83;;;;;;;-141.97;100.00;46389.09;5043990;28;20178;-82
2024/01/23 01:12:58;;;;;;;65.43;24.57;;;;;;;-141.97;100.00;46306.50;5033099;28;20179;-84
2024/01/23 01:15:23;;;;;;;59.70;23.67;;;;;;;-141.97;100.00;46754.19;5038185;28;20311;-82
2024/01/23 01:17:48;;;;;;;66.00;25.40;;;;;;;-141.97;100.00;46400.63;5012426;28;20169;-83
2024/01/23 01:20:14;;;;;;;61.23;24.40;;;;;;;-141.97;100.00;46456.34;5028528;28;20162;-84
2024/01/23 01:22:39;;;;;;;66.50;25.60;;;;;;;-141.97;100.00;46669.63;5028819;28;20179;-83
2024/01/23 01:25:05;;;;;;;75.93;25.33;;;;;;;-141.97;100.00;46366.06;5012161;28;20176;-83
2024/01/23 01:27:30;;;;;;;62.43;24.37;;;;;;;-141.97;100.00;46715.75;5028404;28;20189;-83
2024/01/23 01:29:56;;;;;;;66.53;25.07;;;;;;;-141.97;100.00;46683.09;5010713;28;20191;-82
2024/01/23 01:32:21;;;;;;;63.87;23.90;;;;;;;-141.97;100.00;46412.16;4995484;28;20185;-83
2024/01/23 01:34:47;;;;;;;62.77;25.30;;;;;;;-141.97;100.00;46314.16;4995715;28;20181;-84
2024/01/23 01:37:12;;;;;;;62.83;25.60;;;;;;;-141.97;100.00;46456.34;5014795;28;20167;-83
2024/01/23 01:39:38;;;;;;;67.07;25.83;;;;;;;-141.97;100.00;46371.81;5053371;28;20181;-83
2024/01/23 01:42:03;;;;;;;70.93;26.10;;;;;;;-141.97;100.00;46665.78;5032704;28;20188;-83
2024/01/23 01:44:32;;;;;;;71.23;27.20;;;;;;;-141.97;100.00;46277.66;5012883;28;20166;-84
2024/01/23 01:46:58;;;;;;;68.22;27.55;;;;;;;-141.97;100.00;46711.91;4997468;28;20244;-84
2024/01/23 01:49:24;;;;;;;76.77;28.10;;;;;;;-141.97;100.00;46268.06;5012698;28;20170;-84
2024/01/23 01:51:49;;;;;;;70.13;27.43;;;;;;;-141.97;100.00;46220.03;5012939;28;20183;-84
2024/01/23 01:54:15;;;;;;;72.30;28.80;;;;;;;-141.97;100.00;46512.06;5012668;28;20305;-84
2024/01/23 01:56:40;;;;;;;80.67;27.73;;;;;;;-141.97;100.00;46241.16;5012962;28;20621;-84
2024/01/23 01:59:07;;;;;;;69.27;27.33;;;;;;;-141.97;100.00;46352.59;4996413;28;20670;-83
2024/01/23 02:01:33;;;;;;;68.57;25.42;;;;;;;-141.97;100.00;46450.59;5012857;28;20175;-84
2024/01/23 02:03:58;;;;;;;78.03;27.30;;;;;;;-141.97;100.00;46433.28;5028990;28;20176;-83
2024/01/23 02:06:24;;;;;;;62.40;24.83;;;;;;;-141.97;100.00;46698.47;5028318;28;20287;-84
2024/01/23 02:08:50;;;;;;;63.70;24.50;;;;;;;-141.97;100.00;46373.72;5011422;28;20193;-84
2024/01/23 02:11:15;;;;;;;54.20;21.47;;;;;;;-141.97;100.00;46298.81;5011913;28;20165;-83
2024/01/23 02:13:44;;;;;;;51.73;20.90;;;;;;;-141.97;100.00;46241.16;5027876;28;20175;-85
2024/01/23 02:16:09;;;;;;;54.67;20.58;;;;;;;-141.97;99.34;46308.41;4995580;28;20161;-84
2024/01/23 02:18:35;;;;;;;53.90;21.03;;;;;;;-141.97;99.23;46310.31;4995304;28;20570;-84
2024/01/23 02:21:00;;;;;;;51.77;20.93;;;;;;;-141.97;99.36;46588.94;4995138;28;20506;-84
2024/01/23 02:23:29;;;;;;;46.07;19.83;;;;;;;-141.97;98.83;46312.25;5011978;28;20184;-83
2024/01/23 02:25:55;;;;;;;40.38;15.27;;;;;;;-141.97;98.82;46252.69;5011658;28;20691;-84
2024/01/23 02:28:21;;;;;;;48.47;18.03;;;;;;;-141.97;98.95;46669.63;4996621;28;20173;-85
2024/01/23 02:30:46;;;;;;;46.40;18.97;;;;;;;-141.97;98.79;46811.84;5012125;28;20153;-84
2024/01/23 02:33:12;;;;;;;46.70;17.17;;;;;;;-141.97;98.76;46183.53;4995214;28;20176;-85
2024/01/23 02:35:40;;;;;;;42.93;15.57;;;;;;;-141.97;98.93;46337.22;5011895;28;20224;-84
2024/01/23 02:38:05;;;;;;;46.30;16.30;;;;;;;-141.97;99.41;46439.06;4995915;28;20698;-83
2024/01/23 02:40:31;;;;;;;51.83;19.63;;;;;;;-141.97;100.00;46331.47;4995711;28;20171;-84
2024/01/23 02:42:56;;;;;;;47.47;17.90;;;;;;;-141.97;100.00;46243.09;4998559;28;20179;-84
2024/01/23 02:45:22;;;;;;;57.83;21.00;;;;;;;-141.97;100.00;46439.06;4998748;28;20175;-84
2024/01/23 02:47:47;;;;;;;64.23;22.97;;;;;;;-141.97;99.87;46688.84;4999421;28;20195;-85
2024/01/23 02:50:13;;;;;;;61.17;24.00;;;;;;;-141.97;99.36;46625.44;5016134;28;20165;-84
2024/01/23 02:52:38;;;;;;;57.10;20.77;;;;;;;-141.97;98.92;46293.03;5015417;28;20235;-85
2024/01/23 02:55:04;;;;;;;52.93;19.63;;;;;;;-141.97;99.08;46358.38;5015067;28;20224;-85
2024/01/23 02:57:29;;;;;;;57.70;21.17;;;;;;;-141.97;99.50;46350.69;4998950;28;20176;-85
2024/01/23 02:59:55;;;;;;;55.37;21.63;;;;;;;-141.97;99.19;46700.38;5031896;28;20183;-85
2024/01/23 03:02:21;;;;;;;58.47;21.13;;;;;;;-141.97;98.92;46273.81;5032168;28;20644;-85
2024/01/23 03:04:46;;;;;;;49.10;19.05;;;;;;;-141.97;98.85;46448.66;5015353;28;20333;-84
2024/01/23 03:07:12;;;;;;;53.43;19.13;;;;;;;-141.97;99.01;46456.34;5014429;28;20598;-85
2024/01/23 03:09:38;;;;;;;48.95;19.15;;;;;;;-141.97;98.84;46465.97;4998242;28;20184;-83
2024/01/23 03:12:20;;;;;;;52.67;20.30;;;;;;;-141.97;99.18;46715.75;5031510;28;20177;-83
2024/01/23 03:14:46;;;;;;;54.90;21.13;;;;;;;-141.97;98.86;46465.97;5014926;28;20502;-84
2024/01/23 03:17:12;;;;;;;51.97;21.40;;;;;;;-141.97;98.98;46708.06;5014585;28;20654;-83
2024/01/23 03:19:38;;;;;;;62.03;23.33;;;;;;;-141.97;99.04;46227.72;5000000;28;20228;-82
2024/01/23 03:22:04;;;;;;;57.97;21.20;;;;;;;-141.97;98.75;46681.16;5018542;28;20207;-85
2024/01/23 03:24:30;;;;;;;56.85;21.45;;;;;;;-141.97;98.60;46318.00;5017671;28;20655;-84
2024/01/23 03:26:55;;;;;;;53.50;18.90;;;;;;;-141.97;98.69;46417.94;5031041;28;20191;-84
2024/01/23 03:29:21;;;;;;;60.75;22.15;;;;;;;-141.97;97.94;46612.00;5014697;28;20258;-84
2024/01/23 03:31:46;;;;;;;55.53;20.80;;;;;;;-141.97;99.04;46765.72;5014455;28;20271;-84
2024/01/23 03:34:12;;;;;;;53.60;21.40;;;;;;;-141.97;98.60;46369.88;4998454;28;20170;-85
2024/01/23 03:36:37;;;;;;;55.97;21.27;;;;;;;-141.97;98.80;46266.13;5014267;28;20183;-84
2024/01/23 03:39:03;;;;;;;51.57;19.30;;;;;;;-141.97;99.18;46652.34;5014043;28;20160;-84
2024/01/23 03:41:29;;;;;;;54.05;19.25;;;;;;;-141.97;99.13;46640.81;4998534;28;20185;-86
2024/01/23 03:43:55;;;;;;;59.20;22.92;;;;;;;-141.97;99.35;46304.56;5014394;28;20248;-84
2024/01/23 03:46:20;;;;;;;109.17;32.40;;;;;;;-141.97;99.14;46554.34;5030149;28;20261;-83
2024/01/23 03:48:46;;;;;;;132.83;39.10;;;;;;;-141.97;99.34;46646.59;4997496;28;20178;-83
2024/01/23 03:51:11;;;;;;;75.93;26.87;;;;;;;-141.97;100.00;46300.72;5001784;28;20176;-82
2024/01/23 03:53:37;;;;;;;60.57;21.60;;;;;;;-141.97;100.00;46665.78;5034696;28;20262;-82
2024/01/23 03:56:02;;;;;;;40.63;15.43;;;;;;;-141.97;100.00;46673.47;5021802;28;20162;-84
2024/01/23 03:58:28;;;;;;;51.23;18.70;;;;;;;-141.97;100.00;46713.84;5015037;28;20172;-83
2024/01/23 04:00:53;;;;;;;38.33;14.93;;;;;;;-141.97;100.00;46404.47;5015709;28;20240;-83
2024/01/23 04:03:18;;;;;;;47.47;18.77;;;;;;;-141.97;100.00;46196.97;5014348;28;20174;-84
2024/01/23 04:05:44;;;;;;;45.87;16.60;;;;;;;-141.97;100.00;46677.31;4998021;28;20563;-83
2024/01/23 04:08:09;;;;;;;57.03;19.03;;;;;;;-141.97;100.00;46723.44;5030635;28;20654;-83
2024/01/23 04:10:35;;;;;;;57.90;21.27;;;;;;;-141.97;100.00;46398.72;4997583;28;20618;-83
2024/01/23 04:13:00;;;;;;;55.77;22.03;;;;;;;-141.97;100.00;46458.28;4997577;28;20170;-84
2024/01/23 04:15:26;;;;;;;52.13;19.17;;;;;;;-141.97;100.00;46423.69;5013895;28;20624;-84
2024/01/23 04:17:55;;;;;;;33.15;12.70;;;;;;;-141.97;100.00;46489.03;5029736;28;20625;-84
2024/01/23 04:20:20;;;;;;;34.92;13.65;;;;;;;-141.97;100.00;46446.75;5013762;28;20205;-83
2024/01/23 04:22:45;;;;;;;50.70;18.07;;;;;;;-141.97;100.00;46462.13;4996944;28;20182;-84
2024/01/23 04:25:12;;;;;;;48.37;18.77;;;;;;;-141.97;100.00;46686.94;5013386;28;20204;-84
2024/01/23 04:27:37;;;;;;;48.05;15.75;;;;;;;-141.97;100.00;46337.22;4996907;28;20207;-84
2024/01/23 04:30:03;;;;;;;31.80;11.90;;;;;;;-141.97;100.00;46512.06;4996902;28;20166;-85
2024/01/23 04:32:28;;;;;;;49.17;18.23;;;;;;;-141.97;100.00;46650.44;4997158;28;20170;-83
2024/01/23 04:34:54;;;;;;;47.17;17.53;;;;;;;-141.97;100.00;46323.78;4997232;28;20180;-83
2024/01/23 04:37:19;;;;;;;48.90;17.63;;;;;;;-141.97;100.00;46498.63;4997167;28;20185;-84
2024/01/23 04:39:45;;;;;;;57.53;20.60;;;;;;;-141.97;100.00;46692.69;4996937;28;20170;-84
2024/01/23 04:42:10;;;;;;;55.90;22.47;;;;;;;-141.97;100.00;46396.78;5013309;28;20185;-84
2024/01/23 04:44:35;;;;;;;48.40;17.97;;;;;;;-141.97;100.00;46440.97;4999952;28;20200;-85
2024/01/23 04:47:01;;;;;;;49.87;18.50;;;;;;;-141.97;100.00;46362.22;5037805;28;20202;-85
2024/01/23 04:49:26;;;;;;;39.13;14.53;;;;;;;-141.97;100.00;46748.44;5021750;28;20170;-84
2024/01/23 04:51:52;;;;;;;52.43;18.33;;;;;;;-141.97;100.00;46406.41;5026297;28;20173;-82
2024/01/23 04:54:17;;;;;;;39.83;15.07;;;;;;;-141.97;100.00;46473.66;5012646;28;20230;-86
2024/01/23 04:56:43;;;;;;;42.40;16.67;;;;;;;-141.97;100.00;46400.63;4996900;28;20182;-87
2024/01/23 04:59:08;;;;;;;48.37;17.73;;;;;;;-141.97;100.00;46381.41;5000724;28;20262;-85
2024/01/23 05:01:33;;;;;;;49.07;16.53;;;;;;;-141.97;100.00;46581.25;4998951;28;20166;-86
2024/01/23 05:03:59;;;;;;;48.30;18.23;;;;;;;-141.97;100.00;46348.75;4995765;28;20174;-86
2024/01/23 05:06:24;;;;;;;81.17;28.30;;;;;;;-141.97;100.00;46700.38;4996460;28;20684;-87
2024/01/23 05:08:50;;;;;;;66.47;24.47;;;;;;;-141.97;100.00;46325.69;5000120;28;20182;-86
2024/01/23 05:11:15;;;;;;;71.23;27.87;;;;;;;-141.97;100.00;46635.06;5013731;28;20171;-86
2024/01/23 05:13:44;;;;;;;39.90;18.10;;;;;;;-141.97;100.00;46429.47;5015605;28;20162;-89
2024/01/23 05:16:09;;;;;;;40.28;16.40;;;;;;;-141.97;100.00;46729.22;5000331;28;20257;-86
2024/01/23 05:18:37;;;;;;;45.03;18.10;;;;;;;-141.97;100.00;46314.16;5016082;28;20248;-87
2024/01/23 05:21:03;;;;;;;53.47;24.48;;;;;;;-141.97;100.00;46608.16;4999235;28;20182;-87
2024/01/23 05:23:28;;;;;;;70.77;26.23;;;;;;;-141.97;100.00;46154.69;5000234;28;20182;-87
2024/01/23 05:25:54;;;;;;;68.50;26.37;;;;;;;-141.97;100.00;46608.16;4998862;28;20198;-86
2024/01/23 05:28:19;;;;;;;51.67;21.07;;;;;;;-141.97;100.00;46277.66;5014020;28;20232;-87
2024/01/23 05:30:44;;;;;;;83.67;29.53;;;;;;;-141.97;100.00;46650.44;4995585;28;20233;-87
2024/01/23 05:33:10;;;;;;;159.37;48.60;;;;;;;-141.97;100.00;46479.41;4995579;28;20178;-87
2024/01/23 05:35:36;;;;;;;110.73;42.37;;;;;;;-141.97;100.00;46444.81;5012459;28;20174;-87
2024/01/23 05:38:01;;;;;;;83.70;29.80;;;;;;;-141.97;100.00;46706.16;4998518;28;20187;-87
2024/01/23 05:40:26;;;;;;;58.97;22.80;;;;;;;-141.97;100.00;46314.16;5045516;28;20187;-86
2024/01/23 05:42:52;;;;;;;72.40;28.27;;;;;;;-141.97;100.00;46577.41;5017641;28;20167;-85
2024/01/23 05:45:17;;;;;;;66.23;27.40;;;;;;;-141.97;100.00;46362.22;5015317;28;20189;-85
2024/01/23 05:47:43;;;;;;;59.23;22.53;;;;;;;-141.97;100.00;46404.47;5009748;28;20655;-87
2024/01/23 05:50:08;;;;;;;88.83;27.40;;;;;;;-141.97;100.00;46231.56;5022213;28;20178;-87
2024/01/23 05:52:34;;;;;;;156.30;42.40;;;;;;;-141.97;100.00;46704.22;5000141;28;20297;-85
2024/01/23 05:55:00;;;;;;;31.53;12.43;;;;;;;-141.97;100.00;46654.28;5014469;28;20225;-85
2024/01/23 05:57:26;;;;;;;73.35;25.83;;;;;;;-141.97;100.00;46727.28;5019085;28;20242;-85
2024/01/23 05:59:52;;;;;;;96.87;33.70;;;;;;;-141.97;100.00;46604.31;4998542;28;20179;-85
2024/01/23 06:02:17;;;;;;;64.57;25.43;;;;;;;-141.97;100.00;46481.34;4996718;28;20223;-85
2024/01/23 06:04:43;;;;;;;105.27;34.80;;;;;;;-141.97;100.00;46358.38;4996349;28;20586;-85
2024/01/23 06:07:08;;;;;;;81.43;29.23;;;;;;;-141.97;100.00;46440.97;5007544;28;20201;-85
2024/01/23 06:09:34;;;;;;;131.90;40.03;;;;;;;-141.97;100.00;46462.13;5023787;28;20170;-85
2024/01/23 06:11:59;;;;;;;44.00;17.70;;;;;;;-141.97;100.00;46214.25;5032627;28;20171;-85
2024/01/23 06:14:24;;;;;;;42.87;15.97;;;;;;;-141.97;99.37;46389.09;5007937;28;20219;-84
2024/01/23 06:16:50;;;;;;;41.37;17.43;;;;;;;-141.97;99.88;46402.56;4998203;28;20519;-85
2024/01/23 06:19:17;;;;;;;69.67;21.27;;;;;;;-141.97;100.00;46427.53;5016658;28;20583;-85
2024/01/23 06:21:42;;;;;;;213.60;47.38;;;;;;;-141.97;100.00;46400.63;5016217;28;20168;-85
2024/01/23 06:24:08;;;;;;;45.23;18.13;;;;;;;-141.97;99.99;46700.38;5004605;28;20176;-85
2024/01/23 06:26:33;;;;;;;86.37;26.17;;;;;;;-141.97;100.00;46392.94;5020587;28;20212;-84
2024/01/23 06:28:59;;;;;;;63.83;21.27;;;;;;;-141.97;99.97;46688.84;5001280;28;20166;-84
2024/01/23 06:31:27;;;;;;;51.77;19.63;;;;;;;-141.97;99.90;46294.97;5020732;28;20165;-86
2024/01/23 06:33:53;;;;;;;55.65;20.30;;;;;;;-141.97;99.92;46500.56;5022890;28;20169;-85
2024/01/23 06:36:19;;;;;;;71.53;25.63;;;;;;;-141.97;99.70;46615.84;5002654;28;20237;-85
2024/01/23 06:38:44;;;;;;;77.83;28.50;;;;;;;-141.97;99.44;46356.44;5004870;28;20415;-85
2024/01/23 06:41:10;;;;;;;88.07;29.83;;;;;;;-141.97;99.35;46636.97;4996589;28;20634;-84
2024/01/23 06:43:35;;;;;;;63.73;24.50;;;;;;;-141.97;98.54;46275.75;4979936;28;20173;-84
2024/01/23 06:46:01;;;;;;;79.23;31.47;;;;;;;-141.97;98.54;46439.06;4995744;28;20718;-85
2024/01/23 06:48:26;;;;;;;80.63;27.30;;;;;;;-141.97;97.80;46419.84;5001225;28;20631;-83
2024/01/23 06:50:52;;;;;;;53.40;20.03;;;;;;;-141.97;96.93;46727.28;4984260;28;20258;-85
2024/01/23 06:53:17;;;;;;;56.03;21.93;;;;;;;-141.97;96.12;46300.72;4979368;28;20235;-84
2024/01/23 06:55:44;;;;;;;62.23;22.50;;;;;;;-141.97;95.34;46421.78;4983831;28;20303;-85
2024/01/23 06:58:09;;;;;;;46.08;16.40;;;;;;;-141.97;95.40;46439.06;4996118;28;20163;-84
2024/01/23 07:00:35;;;;;;;50.03;21.40;;;;;;;-141.97;95.22;46285.34;5011448;28;20210;-84
2024/01/23 07:03:00;;;;;;;46.43;16.13;;;;;;;-141.97;94.73;46302.66;5012070;28;20159;-84
2024/01/23 07:05:26;;;;;;;38.53;12.33;;;;;;;-141.97;93.45;46321.84;4995350;28;20411;-85
2024/01/23 07:07:53;;;;;;;58.67;23.17;;;;;;;-141.97;92.42;46669.63;4978849;28;20199;-84
2024/01/23 07:10:19;;;;;;;57.88;24.30;;;;;;;-141.97;91.95;46517.84;4995186;28;20173;-85
2024/01/23 07:12:44;;;;;;;60.73;26.13;;;;;;;-141.97;90.94;46262.28;5011380;28;20178;-86
2024/01/23 07:15:09;;;;;;;29.30;13.80;;;;;;;-141.97;90.55;46665.78;4979042;28;20174;-83
2024/01/23 07:17:35;;;;;;;36.37;13.40;;;;;;;-141.97;90.23;46358.38;4995152;28;20197;-85
2024/01/23 07:20:01;;;;;;;48.60;19.90;;;;;;;-141.97;89.80;46435.22;4982706;28;20173;-84
2024/01/23 07:22:26;;;;;;;32.60;12.80;;;;;;;-141.97;87.76;46131.66;5013130;28;20273;-86
2024/01/23 07:24:51;;;;;;;47.40;17.00;;;;;;;-141.97;86.99;46373.72;4978194;28;20173;-85
2024/01/23 07:27:23;;;;;;;67.17;20.83;;;;;;;-141.97;87.41;46314.16;4984358;28;20202;-88
2024/01/23 07:29:48;;;;;;;64.60;19.85;;;;;;;-141.97;86.49;46554.34;5004437;28;20330;-85
2024/01/23 07:32:14;;;;;;;105.13;26.83;;;;;;;-141.97;86.10;46208.50;4952189;28;20254;-86
2024/01/23 07:34:39;;;;;;;56.43;20.63;;;;;;;-141.97;84.86;46364.13;4975046;28;20186;-85
2024/01/23 07:37:06;;;;;;;75.90;26.83;;;;;;;-141.97;84.38;46329.53;4979238;28;20736;-86
2024/01/23 07:39:32;;;;;;;49.75;20.23;;;;;;;-141.97;84.96;46604.31;4953225;28;20187;-85
2024/01/23 07:41:58;;;;;;;56.67;20.67;;;;;;;-141.97;84.52;46250.78;4972179;28;20186;-85
2024/01/23 07:44:23;;;;;;;43.75;19.63;;;;;;;-141.97;81.97;46241.16;4959321;28;20205;-84
2024/01/23 07:46:48;;;;;;;58.30;23.77;;;;;;;-141.97;81.54;46400.63;4980230;28;20199;-85
2024/01/23 07:49:14;;;;;;;57.57;24.13;;;;;;;-141.97;79.20;46515.91;4999853;28;20164;-86
2024/01/23 07:51:49;;;;;;;49.30;21.80;;;;;;;-141.97;78.48;46369.88;4994505;28;20175;-84
2024/01/23 07:54:14;;;;;;;79.28;31.80;;;;;;;-141.97;78.91;46258.44;4971808;28;20513;-85
2024/01/23 07:56:40;;;;;;;54.50;20.17;;;;;;;-141.97;78.25;46727.28;4939839;28;20161;-82
2024/01/23 07:59:05;;;;;;;54.97;27.30;;;;;;;-141.97;78.90;46154.69;4952654;28;20199;-85
2024/01/23 08:01:31;;;;;;;56.43;25.87;;;;;;;-141.97;78.72;46227.72;4957950;28;20553;-85
2024/01/23 08:03:57;;;;;;;57.50;25.70;;;;;;;-141.97;79.61;46323.78;4974302;28;20187;-86
2024/01/23 08:06:23;;;;;;;55.77;23.90;;;;;;;-141.97;79.44;46285.34;4974406;28;20203;-85
2024/01/23 08:08:49;;;;;;;45.30;19.43;;;;;;;-141.97;79.31;46660.03;4957851;28;20179;-86
2024/01/23 08:11:15;;;;;;;36.03;14.70;;;;;;;-141.97;78.01;46381.41;4974178;28;20407;-84
2024/01/23 08:13:40;;;;;;;32.33;14.30;;;;;;;-141.97;76.09;46231.56;4973875;28;20202;-84
2024/01/23 08:16:09;;;;;;;29.27;12.03;;;;;;;-141.97;75.40;46750.34;4958415;28;20164;-84
2024/01/23 08:18:36;;;;;;;59.17;22.50;;;;;;;-141.97;75.53;46358.38;4980357;28;20186;-81
2024/01/23 08:21:02;;;;;;;36.92;14.82;;;;;;;-141.97;75.61;46371.81;4961559;28;20187;-84
2024/01/23 08:23:27;;;;;;;42.15;17.70;;;;;;;-141.97;76.93;46391.03;4959603;28;20262;-83
2024/01/23 08:25:53;;;;;;;54.77;23.07;;;;;;;-141.97;78.14;46143.19;4959152;28;20182;-85
2024/01/23 08:28:19;;;;;;;59.87;23.23;;;;;;;-141.97;77.37;46143.19;4974210;28;20573;-85
2024/01/23 08:30:44;;;;;;;87.10;36.00;;;;;;;-141.97;73.60;46358.38;4975690;28;20160;-85
2024/01/23 08:33:17;;;;;;;40.73;17.53;;;;;;;-141.97;71.08;46173.91;4976596;28;20179;-83
2024/01/23 08:35:42;;;;;;;34.03;15.20;;;;;;;-141.97;69.37;46062.47;4968887;28;20179;-84
2024/01/23 08:38:09;;;;;;;31.53;13.67;;;;;;;-141.97;69.14;46694.63;4958018;28;20222;-84
2024/01/23 08:40:34;;;;;;;32.15;14.48;;;;;;;-141.97;68.87;46329.53;4971332;28;20195;-85
2024/01/23 08:43:00;;;;;;;21.00;10.13;;;;;;;-141.97;69.78;46612.00;4955328;28;20172;-84
2024/01/23 08:45:25;;;;;;;27.30;13.03;;;;;;;-141.97;69.72;46189.28;4939532;28;20168;-85
2024/01/23 08:47:51;;;;;;;20.97;9.43;;;;;;;-141.97;70.39;46446.75;4971465;28;20188;-85
2024/01/23 08:50:16;;;;;;;24.53;11.00;;;;;;;-141.97;70.37;46216.19;4975400;28;20180;-84
2024/01/23 08:52:43;;;;;;;42.17;16.30;;;;;;;-141.97;69.03;46275.75;4973706;28;20165;-83
2024/01/23 08:55:09;;;;;;;29.05;11.85;;;;;;;-141.97;68.44;46275.75;4958236;28;20442;-85
2024/01/23 08:57:34;;;;;;;27.70;11.35;;;;;;;-141.97;68.74;46279.59;4976872;28;20193;-85
2024/01/23 09:00:00;;;;;;;30.53;12.90;;;;;;;-141.97;70.14;46346.84;4990435;28;20203;-85
2024/01/23 09:02:27;;;;;;;45.67;20.10;;;;;;;-141.97;69.87;46312.25;4957171;28;20159;-85
2024/01/23 09:04:52;;;;;;;40.72;14.77;;;;;;;-141.97;66.91;46243.09;4975942;28;20664;-84
2024/01/23 09:07:18;;;;;;;41.50;19.60;;;;;;;-141.97;66.92;46316.09;4958544;28;20272;-84
2024/01/23 09:09:44;;;;;;;29.10;13.30;;;;;;;-141.97;66.22;46114.34;4952446;28;20648;-85
2024/01/23 09:12:09;;;;;;;38.97;17.93;;;;;;;-141.97;67.03;46225.78;4937379;28;20497;-85
2024/01/23 09:14:35;;;;;;;55.27;24.37;;;;;;;-141.97;66.05;46550.50;4953572;28;20641;-84
2024/01/23 09:17:01;;;;;;;41.33;19.00;;;;;;;-141.97;64.98;46512.06;4937849;28;20628;-85
2024/01/23 09:19:26;;;;;;;38.93;17.30;;;;;;;-141.97;65.84;46277.66;4944022;28;20194;-85
2024/01/23 09:21:54;;;;;;;31.52;13.00;;;;;;;-141.97;67.75;46615.84;4969572;28;20560;-85
2024/01/23 09:24:20;;;;;;;51.30;23.75;;;;;;;-141.97;68.39;46412.16;4937822;28;20700;-86
2024/01/23 09:26:45;;;;;;;55.37;26.07;;;;;;;-141.97;65.70;46135.50;4953684;28;20286;-84
2024/01/23 09:29:10;;;;;;;57.13;26.80;;;;;;;-141.97;65.94;46610.06;4945300;28;20651;-84
2024/01/23 09:31:44;;;;;;;48.37;22.63;;;;;;;-141.97;63.28;46131.66;4972706;28;20667;-84
2024/01/23 09:34:09;;;;;;;48.77;18.97;;;;;;;-141.97;62.64;46133.56;4973310;28;20171;-84
2024/01/23 09:36:35;;;;;;;47.07;20.37;;;;;;;-141.97;64.09;46331.47;4971867;28;20984;-83
2024/01/23 09:39:00;;;;;;;78.13;31.27;;;;;;;-141.97;64.27;46293.03;4975337;28;20205;-84
2024/01/23 09:41:26;;;;;;;46.60;22.03;;;;;;;-141.97;63.33;46321.84;4988448;28;20625;-82
2024/01/23 09:43:51;;;;;;;53.43;23.93;;;;;;;-141.97;61.92;46510.16;4962569;28;20173;-81
2024/01/23 09:46:17;;;;;;;38.47;17.67;;;;;;;-141.97;62.39;46556.28;4957050;28;20199;-83
2024/01/23 09:48:42;;;;;;;37.13;16.50;;;;;;;-141.97;62.67;46512.06;4956650;28;20194;-83
2024/01/23 09:51:11;;;;;;;34.63;15.80;;;;;;;-141.97;62.94;46227.72;4988331;28;20659;-82
2024/01/23 09:53:38;;;;;;;30.63;14.70;;;;;;;-141.97;63.47;46154.69;4973806;28;20314;-83
2024/01/23 09:56:04;;;;;;;48.70;21.03;;;;;;;-141.97;64.09;46318.00;4972617;28;20933;-82
2024/01/23 09:58:29;;;;;;;39.30;17.23;;;;;;;-141.97;65.34;46181.59;4956120;28;20414;-81
2024/01/23 10:00:58;;;;;;;63.37;27.23;;;;;;;-141.97;63.76;46623.53;4974843;28;20686;-82
2024/01/23 10:03:24;;;;;;;53.63;23.90;;;;;;;-141.97;61.06;46456.34;4993422;28;20186;-83
2024/01/23 10:05:50;;;;;;;36.33;15.97;;;;;;;-141.97;61.10;46489.03;4980476;28;20462;-81
2024/01/23 10:08:15;;;;;;;33.70;16.27;;;;;;;-141.97;60.94;46581.25;5001483;28;20174;-83
2024/01/23 10:10:41;;;;;;;31.37;15.83;;;;;;;-141.97;60.18;46304.56;5004757;28;20427;-81
2024/01/23 10:13:06;;;;;;;63.53;19.80;;;;;;;-141.97;58.24;46308.41;4965412;28;20194;-81
2024/01/23 10:15:32;;;;;;;37.57;15.70;;;;;;;-141.97;59.49;46150.84;4988322;28;20164;-82
2024/01/23 10:17:57;;;;;;;25.57;11.63;;;;;;;-141.97;59.48;46254.59;4974333;28;20247;-82
2024/01/23 10:20:23;;;;;;;51.33;21.70;;;;;;;-141.97;58.36;46177.75;4957572;28;20179;-83
2024/01/23 10:22:48;;;;;;;63.07;25.00;;;;;;;-141.97;57.05;46245.00;4973883;28;20212;-82
2024/01/23 10:25:18;;;;;;;62.27;26.97;;;;;;;-141.97;56.29;46181.59;4989419;28;20186;-83
2024/01/23 10:27:44;;;;;;;51.77;23.87;;;;;;;-141.97;55.10;45981.78;4967917;28;20203;-83
2024/01/23 10:30:10;;;;;;;42.00;19.03;;;;;;;-141.97;55.50;46114.34;4992485;28;20422;-81
2024/01/23 10:32:36;;;;;;;98.23;36.60;;;;;;;-141.97;57.88;46262.28;4965254;28;20175;-82
2024/01/23 10:35:03;;;;;;;40.50;17.43;;;;;;;-141.97;57.93;46502.47;4970913;28;20175;-82
2024/01/23 10:37:28;;;;;;;76.47;33.97;;;;;;;-141.97;59.38;46585.09;4955457;28;20166;-82
2024/01/23 10:39:53;;;;;;;79.33;35.73;;;;;;;-141.97;57.66;46450.59;4971756;28;20419;-83
2024/01/23 10:42:19;;;;;;;53.40;26.50;;;;;;;-141.97;55.92;46135.50;4992759;28;20172;-85
2024/01/23 10:44:47;;;;;;;53.17;24.07;;;;;;;-141.97;55.70;46154.69;4972952;28;20269;-81
2024/01/23 10:47:14;;;;;;;32.47;18.20;;;;;;;-141.97;54.45;46116.28;4972401;28;20422;-81
2024/01/23 10:49:40;;;;;;;41.10;21.17;;;;;;;-141.97;54.08;46160.47;4971626;28;20425;-81